createdAt,value
2023-05-25T00:03:40.497Z,11.87
2023-05-25T00:14:21.273Z,12.00
2023-05-25T00:25:01.929Z,12.10
2023-05-25T00:35:43.276Z,11.71
2023-05-25T00:46:24.297Z,11.63
2023-05-25T00:57:07.895Z,11.50
2023-05-25T01:07:50.566Z,11.42
2023-05-25T01:18:31.435Z,11.07
2023-05-25T01:29:13.596Z,10.81
2023-05-25T01:39:54.016Z,10.53
2023-05-25T01:50:57.884Z,10.47
2023-05-25T02:01:41.229Z,10.36
2023-05-25T02:12:21.742Z,10.05
2023-05-25T02:23:02.106Z,10.28
2023-05-25T02:33:42.789Z,10.11
2023-05-25T02:44:23.577Z,10.07
2023-05-25T02:55:05.925Z,10.07
2023-05-25T03:05:47.368Z,10.00
2023-05-25T03:16:28.172Z,10.04
2023-05-25T03:27:09.065Z,9.71
2023-05-25T03:37:49.682Z,9.42
2023-05-25T03:48:30.046Z,9.30
2023-05-25T03:59:10.771Z,9.29
2023-05-25T04:09:51.069Z,9.34
2023-05-25T04:20:31.677Z,9.60
2023-05-25T04:31:13.321Z,9.67
2023-05-25T04:41:53.860Z,9.94
2023-05-25T04:52:34.794Z,10.06
2023-05-25T05:03:15.229Z,10.35
2023-05-25T05:13:56.541Z,10.51
2023-05-25T05:24:37.396Z,10.65
2023-05-25T05:35:17.683Z,11.09
2023-05-25T05:45:58.320Z,11.51
2023-05-25T05:56:39.122Z,12.27
2023-05-25T06:07:20.977Z,12.88
2023-05-25T06:18:01.760Z,13.30
2023-05-25T06:28:42.316Z,13.73
2023-05-25T06:39:22.716Z,14.68
2023-05-25T06:50:03.778Z,14.48
2023-05-25T07:00:45.451Z,14.76
2023-05-25T07:11:27.942Z,15.17
2023-05-25T07:22:08.404Z,15.61
2023-05-25T07:32:48.514Z,16.19
2023-05-25T07:43:29.002Z,16.21
2023-05-25T07:54:10.606Z,16.02
2023-05-25T08:04:52.104Z,16.61
2023-05-25T08:15:32.816Z,16.17
2023-05-25T08:37:00.407Z,16.92
2023-05-25T08:47:44.977Z,17.27
2023-05-25T08:58:32.864Z,17.18
2023-05-25T09:09:13.494Z,17.13
2023-05-25T09:19:54.638Z,16.88
2023-05-25T09:30:36.140Z,17.16
2023-05-25T09:41:16.768Z,17.29
2023-05-25T09:51:57.284Z,17.34
2023-05-25T10:02:38.137Z,17.34
2023-05-25T10:13:22.840Z,17.48
2023-05-25T10:24:10.433Z,17.36
2023-05-25T10:34:52.805Z,17.67
2023-05-25T10:45:34.053Z,17.78
2023-05-25T10:56:14.589Z,17.75
2023-05-25T11:07:16.442Z,17.29
2023-05-25T11:18:01.418Z,17.75
2023-05-25T11:28:47.034Z,17.82
2023-05-25T11:39:27.738Z,17.93
2023-05-25T11:50:14.887Z,17.95
2023-05-25T12:00:55.553Z,18.26
2023-05-25T12:11:45.333Z,18.14
2023-05-25T12:22:26.000Z,18.21
2023-05-25T12:33:06.847Z,18.13
2023-05-25T12:43:47.381Z,18.28
2023-05-25T12:54:34.923Z,18.36
2023-05-25T13:05:23.805Z,18.35
2023-05-25T13:16:04.589Z,18.34
2023-05-25T13:26:48.093Z,18.41
2023-05-25T13:37:30.026Z,18.59
2023-05-25T13:47:50.832Z,18.59
2023-05-25T13:58:11.209Z,18.59
2023-05-25T14:08:51.464Z,18.66
2023-05-25T14:19:12.030Z,18.62
2023-05-25T14:29:32.535Z,18.74
2023-05-25T14:39:52.662Z,18.69
2023-05-25T14:50:12.820Z,18.83
2023-05-25T15:00:53.188Z,18.73
2023-05-25T15:11:13.621Z,18.89
2023-05-25T15:21:54.209Z,18.94
2023-05-25T15:32:34.734Z,18.79
2023-05-25T15:42:55.210Z,18.74
2023-05-25T15:53:16.308Z,18.65
2023-05-25T16:03:37.175Z,18.61
2023-05-25T16:13:57.707Z,18.56
2023-05-25T16:24:18.061Z,18.47
2023-05-25T16:34:38.251Z,18.48
2023-05-25T16:44:58.306Z,18.56
2023-05-25T16:55:18.621Z,18.48
2023-05-25T17:05:39.055Z,18.33
2023-05-25T17:15:59.314Z,18.36
2023-05-25T17:26:19.539Z,18.37
2023-05-25T17:36:59.844Z,18.26
2023-05-25T17:47:40.553Z,18.16
2023-05-25T17:58:22.304Z,18.03
2023-05-25T18:09:04.248Z,18.10
2023-05-25T18:19:44.751Z,17.94
2023-05-25T18:30:25.189Z,17.85
2023-05-25T18:41:05.716Z,17.79
2023-05-25T18:51:46.505Z,17.66
2023-05-25T19:02:29.063Z,17.60
2023-05-25T19:13:10.188Z,17.36
2023-05-25T19:23:51.660Z,16.99
2023-05-25T19:34:32.664Z,16.65
2023-05-25T19:45:13.418Z,16.39
2023-05-25T19:55:53.748Z,16.41
2023-05-25T20:06:34.234Z,16.01
2023-05-25T20:17:15.062Z,15.72
2023-05-25T20:27:55.361Z,15.39
2023-05-25T20:38:35.812Z,15.05
2023-05-25T20:49:16.295Z,14.93
2023-05-25T20:59:59.776Z,14.47
2023-05-25T21:10:41.327Z,14.31
2023-05-25T21:21:21.868Z,14.02
2023-05-25T21:32:02.196Z,13.84
2023-05-25T21:42:42.970Z,13.78
2023-05-25T21:53:23.680Z,13.66
2023-05-25T22:04:04.487Z,13.55
2023-05-25T22:14:44.932Z,13.48
2023-05-25T22:25:25.979Z,13.48
2023-05-25T22:36:06.922Z,12.97
2023-05-25T22:46:47.576Z,12.82
2023-05-25T22:57:28.494Z,12.95
2023-05-25T23:08:09.118Z,12.68
2023-05-25T23:18:51.370Z,12.95
2023-05-25T23:29:32.499Z,12.60
2023-05-25T23:40:13.325Z,11.89
2023-05-25T23:50:53.650Z,12.07
